sensor_id;sensor_type;location;lat;lon;timestamp;P1;durP1;ratioP1;P2;durP2;ratioP2
32152;SDS011;18656;50.580;11.392;2022-09-16T00:01:58;7.10;;;3.15;;
32152;SDS011;18656;50.580;11.392;2022-09-16T00:04:25;7.38;;;3.05;;
32152;SDS011;18656;50.580;11.392;2022-09-16T00:06:52;8.15;;;3.55;;
32152;SDS011;18656;50.580;11.392;2022-09-16T00:09:22;4.07;;;3.53;;
32152;SDS011;18656;50.580;11.392;2022-09-16T00:11:49;7.50;;;3.42;;
32152;SDS011;18656;50.580;11.392;2022-09-16T00:14:16;6.13;;;3.30;;
32152;SDS011;18656;50.580;11.392;2022-09-16T00:16:43;8.38;;;3.70;;
32152;SDS011;18656;50.580;11.392;2022-09-16T00:19:10;4.78;;;3.45;;
32152;SDS011;18656;50.580;11.392;2022-09-16T00:21:38;7.32;;;3.30;;
32152;SDS011;18656;50.580;11.392;2022-09-16T00:24:05;7.15;;;3.20;;
32152;SDS011;18656;50.580;11.392;2022-09-16T00:26:32;6.93;;;3.50;;
32152;SDS011;18656;50.580;11.392;2022-09-16T00:28:59;3.92;;;3.05;;
32152;SDS011;18656;50.580;11.392;2022-09-16T00:31:29;7.93;;;3.75;;
32152;SDS011;18656;50.580;11.392;2022-09-16T00:33:56;8.55;;;4.05;;
32152;SDS011;18656;50.580;11.392;2022-09-16T00:36:23;8.77;;;4.35;;
32152;SDS011;18656;50.580;11.392;2022-09-16T00:38:51;7.80;;;4.40;;
32152;SDS011;18656;50.580;11.392;2022-09-16T00:41:21;9.40;;;4.07;;
32152;SDS011;18656;50.580;11.392;2022-09-16T00:48:56;6.18;;;4.10;;
32152;SDS011;18656;50.580;11.392;2022-09-16T00:51:26;6.00;;;4.00;;
32152;SDS011;18656;50.580;11.392;2022-09-16T00:53:54;4.25;;;3.80;;
32152;SDS011;18656;50.580;11.392;2022-09-16T00:56:25;5.60;;;3.92;;
32152;SDS011;18656;50.580;11.392;2022-09-16T00:59:39;5.30;;;3.92;;
32152;SDS011;18656;50.580;11.392;2022-09-16T01:01:47;4.38;;;3.67;;
32152;SDS011;18656;50.580;11.392;2022-09-16T01:04:19;5.35;;;3.80;;
32152;SDS011;18656;50.580;11.392;2022-09-16T01:06:48;6.15;;;4.05;;
32152;SDS011;18656;50.580;11.392;2022-09-16T01:09:15;7.13;;;4.25;;
32152;SDS011;18656;50.580;11.392;2022-09-16T01:11:42;7.65;;;4.10;;
32152;SDS011;18656;50.580;11.392;2022-09-16T01:14:09;6.28;;;3.70;;
32152;SDS011;18656;50.580;11.392;2022-09-16T01:30:49;8.13;;;5.18;;
32152;SDS011;18656;50.580;11.392;2022-09-16T01:48:54;5.63;;;3.80;;
32152;SDS011;18656;50.580;11.392;2022-09-16T01:51:29;7.45;;;3.92;;
32152;SDS011;18656;50.580;11.392;2022-09-16T01:59:28;6.22;;;3.65;;
32152;SDS011;18656;50.580;11.392;2022-09-16T02:02:41;6.38;;;3.60;;
32152;SDS011;18656;50.580;11.392;2022-09-16T02:04:55;5.45;;;4.15;;
32152;SDS011;18656;50.580;11.392;2022-09-16T02:07:24;7.60;;;4.20;;
32152;SDS011;18656;50.580;11.392;2022-09-16T02:09:53;3.88;;;3.58;;
32152;SDS011;18656;50.580;11.392;2022-09-16T02:12:24;8.38;;;4.25;;
32152;SDS011;18656;50.580;11.392;2022-09-16T02:14:53;4.93;;;4.43;;
32152;SDS011;18656;50.580;11.392;2022-09-16T02:17:23;8.13;;;4.68;;
32152;SDS011;18656;50.580;11.392;2022-09-16T02:19:56;6.32;;;4.03;;
32152;SDS011;18656;50.580;11.392;2022-09-16T02:24:53;7.95;;;4.38;;
32152;SDS011;18656;50.580;11.392;2022-09-16T02:27:20;6.30;;;3.90;;
32152;SDS011;18656;50.580;11.392;2022-09-16T02:29:53;7.43;;;3.90;;
32152;SDS011;18656;50.580;11.392;2022-09-16T02:32:21;7.70;;;4.30;;
32152;SDS011;18656;50.580;11.392;2022-09-16T02:34:50;7.88;;;4.55;;
32152;SDS011;18656;50.580;11.392;2022-09-16T02:42:21;6.10;;;3.90;;
32152;SDS011;18656;50.580;11.392;2022-09-16T02:44:49;8.82;;;4.93;;
32152;SDS011;18656;50.580;11.392;2022-09-16T02:49:52;11.15;;;5.15;;
32152;SDS011;18656;50.580;11.392;2022-09-16T02:52:30;6.80;;;5.15;;
32152;SDS011;18656;50.580;11.392;2022-09-16T02:57:48;6.32;;;4.90;;
32152;SDS011;18656;50.580;11.392;2022-09-16T03:00:16;7.88;;;5.28;;
32152;SDS011;18656;50.580;11.392;2022-09-16T03:02:43;12.65;;;4.90;;
32152;SDS011;18656;50.580;11.392;2022-09-16T03:05:11;5.38;;;4.90;;
32152;SDS011;18656;50.580;11.392;2022-09-16T03:07:38;6.45;;;4.60;;
32152;SDS011;18656;50.580;11.392;2022-09-16T03:10:10;9.77;;;4.90;;
32152;SDS011;18656;50.580;11.392;2022-09-16T03:20:07;6.38;;;4.63;;
32152;SDS011;18656;50.580;11.392;2022-09-16T03:27:56;6.88;;;4.03;;
32152;SDS011;18656;50.580;11.392;2022-09-16T03:30:26;6.97;;;4.30;;
32152;SDS011;18656;50.580;11.392;2022-09-16T03:32:57;5.75;;;4.32;;
32152;SDS011;18656;50.580;11.392;2022-09-16T03:35:30;7.40;;;4.55;;
32152;SDS011;18656;50.580;11.392;2022-09-16T03:37:58;8.93;;;4.68;;
32152;SDS011;18656;50.580;11.392;2022-09-16T03:40:27;8.07;;;5.30;;
32152;SDS011;18656;50.580;11.392;2022-09-16T03:42:56;5.43;;;4.78;;
32152;SDS011;18656;50.580;11.392;2022-09-16T03:45:23;5.32;;;4.38;;
32152;SDS011;18656;50.580;11.392;2022-09-16T03:47:51;5.57;;;4.75;;
32152;SDS011;18656;50.580;11.392;2022-09-16T03:50:19;8.95;;;4.55;;
32152;SDS011;18656;50.580;11.392;2022-09-16T03:52:46;9.85;;;4.50;;
32152;SDS011;18656;50.580;11.392;2022-09-16T03:55:14;6.88;;;4.80;;
32152;SDS011;18656;50.580;11.392;2022-09-16T03:57:42;9.23;;;6.07;;
32152;SDS011;18656;50.580;11.392;2022-09-16T04:00:09;10.93;;;7.25;;
32152;SDS011;18656;50.580;11.392;2022-09-16T04:02:36;8.90;;;6.35;;
32152;SDS011;18656;50.580;11.392;2022-09-16T04:05:04;8.88;;;5.22;;
32152;SDS011;18656;50.580;11.392;2022-09-16T04:07:31;7.85;;;5.20;;
32152;SDS011;18656;50.580;11.392;2022-09-16T04:09:59;6.25;;;4.75;;
32152;SDS011;18656;50.580;11.392;2022-09-16T04:12:27;13.25;;;5.38;;
32152;SDS011;18656;50.580;11.392;2022-09-16T04:14:54;5.78;;;5.18;;
32152;SDS011;18656;50.580;11.392;2022-09-16T04:17:22;13.07;;;5.15;;
32152;SDS011;18656;50.580;11.392;2022-09-16T04:19:49;6.00;;;5.03;;
32152;SDS011;18656;50.580;11.392;2022-09-16T04:22:18;9.52;;;4.90;;
32152;SDS011;18656;50.580;11.392;2022-09-16T04:24:45;7.90;;;4.50;;
32152;SDS011;18656;50.580;11.392;2022-09-16T04:27:15;4.65;;;4.07;;
32152;SDS011;18656;50.580;11.392;2022-09-16T04:29:42;8.75;;;4.82;;
32152;SDS011;18656;50.580;11.392;2022-09-16T04:32:09;7.82;;;4.97;;
32152;SDS011;18656;50.580;11.392;2022-09-16T04:34:36;7.78;;;5.68;;
32152;SDS011;18656;50.580;11.392;2022-09-16T04:37:03;9.88;;;5.53;;
32152;SDS011;18656;50.580;11.392;2022-09-16T04:39:30;11.90;;;5.85;;
32152;SDS011;18656;50.580;11.392;2022-09-16T04:41:57;24.13;;;6.85;;
32152;SDS011;18656;50.580;11.392;2022-09-16T04:44:26;36.28;;;7.35;;
32152;SDS011;18656;50.580;11.392;2022-09-16T04:46:55;28.63;;;7.57;;
32152;SDS011;18656;50.580;11.392;2022-09-16T04:49:22;25.70;;;7.35;;
32152;SDS011;18656;50.580;11.392;2022-09-16T04:51:49;19.13;;;6.95;;
32152;SDS011;18656;50.580;11.392;2022-09-16T04:54:17;8.15;;;6.03;;
32152;SDS011;18656;50.580;11.392;2022-09-16T04:56:44;12.77;;;6.53;;
32152;SDS011;18656;50.580;11.392;2022-09-16T04:59:11;9.90;;;5.85;;
32152;SDS011;18656;50.580;11.392;2022-09-16T05:01:39;18.40;;;6.18;;
32152;SDS011;18656;50.580;11.392;2022-09-16T05:04:07;14.98;;;7.30;;
32152;SDS011;18656;50.580;11.392;2022-09-16T05:06:36;18.42;;;7.68;;
32152;SDS011;18656;50.580;11.392;2022-09-16T05:09:04;27.73;;;7.65;;
32152;SDS011;18656;50.580;11.392;2022-09-16T05:11:35;16.75;;;6.22;;
32152;SDS011;18656;50.580;11.392;2022-09-16T05:14:04;17.77;;;6.18;;
32152;SDS011;18656;50.580;11.392;2022-09-16T05:16:31;12.52;;;6.47;;
32152;SDS011;18656;50.580;11.392;2022-09-16T05:18:59;18.23;;;6.45;;
32152;SDS011;18656;50.580;11.392;2022-09-16T05:21:30;13.23;;;7.22;;
32152;SDS011;18656;50.580;11.392;2022-09-16T05:23:58;14.20;;;7.47;;
32152;SDS011;18656;50.580;11.392;2022-09-16T05:26:27;11.82;;;7.15;;
32152;SDS011;18656;50.580;11.392;2022-09-16T05:28:54;14.18;;;7.13;;
32152;SDS011;18656;50.580;11.392;2022-09-16T05:31:22;21.75;;;7.15;;
32152;SDS011;18656;50.580;11.392;2022-09-16T05:33:55;18.35;;;6.80;;
32152;SDS011;18656;50.580;11.392;2022-09-16T05:36:22;11.20;;;6.90;;
32152;SDS011;18656;50.580;11.392;2022-09-16T05:38:49;12.45;;;7.40;;
32152;SDS011;18656;50.580;11.392;2022-09-16T05:41:37;12.45;;;7.22;;
32152;SDS011;18656;50.580;11.392;2022-09-16T05:44:04;10.45;;;6.95;;
32152;SDS011;18656;50.580;11.392;2022-09-16T05:46:35;9.82;;;6.75;;
32152;SDS011;18656;50.580;11.392;2022-09-16T05:49:03;11.27;;;6.13;;
32152;SDS011;18656;50.580;11.392;2022-09-16T05:51:30;13.98;;;6.90;;
32152;SDS011;18656;50.580;11.392;2022-09-16T05:53:57;13.90;;;6.20;;
32152;SDS011;18656;50.580;11.392;2022-09-16T05:56:25;16.90;;;6.28;;
32152;SDS011;18656;50.580;11.392;2022-09-16T05:58:54;23.33;;;5.07;;
32152;SDS011;18656;50.580;11.392;2022-09-16T06:01:23;13.63;;;5.90;;
32152;SDS011;18656;50.580;11.392;2022-09-16T06:03:52;14.57;;;6.28;;
32152;SDS011;18656;50.580;11.392;2022-09-16T06:06:24;6.22;;;5.05;;
32152;SDS011;18656;50.580;11.392;2022-09-16T06:08:53;8.75;;;5.57;;
32152;SDS011;18656;50.580;11.392;2022-09-16T06:11:20;7.35;;;5.45;;
32152;SDS011;18656;50.580;11.392;2022-09-16T06:13:51;8.40;;;5.43;;
32152;SDS011;18656;50.580;11.392;2022-09-16T06:16:21;6.60;;;5.95;;
32152;SDS011;18656;50.580;11.392;2022-09-16T06:18:48;15.15;;;9.00;;
32152;SDS011;18656;50.580;11.392;2022-09-16T06:21:15;11.63;;;7.72;;
32152;SDS011;18656;50.580;11.392;2022-09-16T06:23:43;8.77;;;7.63;;
32152;SDS011;18656;50.580;11.392;2022-09-16T06:26:15;12.70;;;8.15;;
32152;SDS011;18656;50.580;11.392;2022-09-16T06:28:43;14.02;;;6.75;;
32152;SDS011;18656;50.580;11.392;2022-09-16T06:31:12;26.02;;;8.68;;
32152;SDS011;18656;50.580;11.392;2022-09-16T06:33:39;12.35;;;7.57;;
32152;SDS011;18656;50.580;11.392;2022-09-16T06:36:07;15.57;;;7.10;;
32152;SDS011;18656;50.580;11.392;2022-09-16T06:38:35;14.73;;;6.47;;
32152;SDS011;18656;50.580;11.392;2022-09-16T06:41:03;10.45;;;5.95;;
32152;SDS011;18656;50.580;11.392;2022-09-16T06:43:30;9.98;;;5.93;;
32152;SDS011;18656;50.580;11.392;2022-09-16T06:45:58;11.50;;;5.30;;
32152;SDS011;18656;50.580;11.392;2022-09-16T06:48:26;7.35;;;4.82;;
32152;SDS011;18656;50.580;11.392;2022-09-16T06:50:57;6.32;;;4.97;;
32152;SDS011;18656;50.580;11.392;2022-09-16T06:53:24;13.45;;;4.68;;
32152;SDS011;18656;50.580;11.392;2022-09-16T06:55:51;7.55;;;3.95;;
32152;SDS011;18656;50.580;11.392;2022-09-16T06:58:19;11.70;;;3.47;;
32152;SDS011;18656;50.580;11.392;2022-09-16T07:00:46;6.88;;;2.90;;
32152;SDS011;18656;50.580;11.392;2022-09-16T07:03:13;7.80;;;2.78;;
32152;SDS011;18656;50.580;11.392;2022-09-16T07:05:40;7.10;;;2.70;;
32152;SDS011;18656;50.580;11.392;2022-09-16T07:08:07;4.65;;;2.70;;
32152;SDS011;18656;50.580;11.392;2022-09-16T07:10:34;10.40;;;4.15;;
32152;SDS011;18656;50.580;11.392;2022-09-16T07:13:01;8.48;;;2.65;;
32152;SDS011;18656;50.580;11.392;2022-09-16T07:15:29;3.65;;;2.08;;
32152;SDS011;18656;50.580;11.392;2022-09-16T07:17:56;2.53;;;1.50;;
32152;SDS011;18656;50.580;11.392;2022-09-16T07:20:23;2.67;;;1.67;;
32152;SDS011;18656;50.580;11.392;2022-09-16T07:22:50;3.75;;;1.23;;
32152;SDS011;18656;50.580;11.392;2022-09-16T07:25:19;4.13;;;1.33;;
32152;SDS011;18656;50.580;11.392;2022-09-16T07:27:46;2.33;;;1.00;;
32152;SDS011;18656;50.580;11.392;2022-09-16T07:30:13;0.98;;;0.90;;
32152;SDS011;18656;50.580;11.392;2022-09-16T07:32:40;2.58;;;1.17;;
32152;SDS011;18656;50.580;11.392;2022-09-16T07:35:07;2.45;;;0.70;;
32152;SDS011;18656;50.580;11.392;2022-09-16T07:37:35;2.40;;;0.75;;
32152;SDS011;18656;50.580;11.392;2022-09-16T07:40:07;4.32;;;1.20;;
32152;SDS011;18656;50.580;11.392;2022-09-16T07:42:35;4.70;;;0.70;;
32152;SDS011;18656;50.580;11.392;2022-09-16T07:45:02;1.08;;;0.38;;
32152;SDS011;18656;50.580;11.392;2022-09-16T07:47:29;2.72;;;0.50;;
32152;SDS011;18656;50.580;11.392;2022-09-16T07:49:56;2.90;;;0.57;;
32152;SDS011;18656;50.580;11.392;2022-09-16T07:52:24;4.45;;;0.50;;
32152;SDS011;18656;50.580;11.392;2022-09-16T07:54:54;3.58;;;0.60;;
32152;SDS011;18656;50.580;11.392;2022-09-16T07:57:22;3.08;;;0.70;;
32152;SDS011;18656;50.580;11.392;2022-09-16T07:59:49;4.25;;;0.60;;
32152;SDS011;18656;50.580;11.392;2022-09-16T08:02:16;4.25;;;0.90;;
32152;SDS011;18656;50.580;11.392;2022-09-16T08:04:43;1.10;;;0.57;;
32152;SDS011;18656;50.580;11.392;2022-09-16T08:07:11;1.05;;;0.60;;
32152;SDS011;18656;50.580;11.392;2022-09-16T08:09:38;2.22;;;0.60;;
32152;SDS011;18656;50.580;11.392;2022-09-16T08:12:12;4.97;;;0.70;;
32152;SDS011;18656;50.580;11.392;2022-09-16T08:14:39;1.30;;;0.60;;
32152;SDS011;18656;50.580;11.392;2022-09-16T08:17:06;2.45;;;0.35;;
32152;SDS011;18656;50.580;11.392;2022-09-16T08:19:34;1.23;;;0.65;;
32152;SDS011;18656;50.580;11.392;2022-09-16T08:22:03;3.15;;;0.52;;
32152;SDS011;18656;50.580;11.392;2022-09-16T08:24:30;4.00;;;0.73;;
32152;SDS011;18656;50.580;11.392;2022-09-16T08:26:58;0.57;;;0.40;;
32152;SDS011;18656;50.580;11.392;2022-09-16T08:29:25;3.75;;;0.93;;
32152;SDS011;18656;50.580;11.392;2022-09-16T08:31:52;5.07;;;0.70;;
32152;SDS011;18656;50.580;11.392;2022-09-16T08:34:19;4.60;;;0.50;;
32152;SDS011;18656;50.580;11.392;2022-09-16T08:36:46;4.13;;;0.75;;
32152;SDS011;18656;50.580;11.392;2022-09-16T08:39:14;3.85;;;0.80;;
32152;SDS011;18656;50.580;11.392;2022-09-16T08:41:51;0.63;;;0.60;;
32152;SDS011;18656;50.580;11.392;2022-09-16T08:47:01;2.40;;;0.50;;
32152;SDS011;18656;50.580;11.392;2022-09-16T08:49:34;2.40;;;0.50;;
32152;SDS011;18656;50.580;11.392;2022-09-16T08:52:10;1.02;;;0.52;;
32152;SDS011;18656;50.580;11.392;2022-09-16T08:54:41;0.63;;;0.40;;
32152;SDS011;18656;50.580;11.392;2022-09-16T08:57:12;2.17;;;0.77;;
32152;SDS011;18656;50.580;11.392;2022-09-16T08:59:43;18.25;;;1.50;;
32152;SDS011;18656;50.580;11.392;2022-09-16T09:04:44;3.40;;;0.60;;
32152;SDS011;18656;50.580;11.392;2022-09-16T09:12:36;2.00;;;0.40;;
32152;SDS011;18656;50.580;11.392;2022-09-16T09:17:41;6.80;;;0.90;;
32152;SDS011;18656;50.580;11.392;2022-09-16T09:23:01;12.48;;;0.80;;
32152;SDS011;18656;50.580;11.392;2022-09-16T09:25:38;3.13;;;0.40;;
32152;SDS011;18656;50.580;11.392;2022-09-16T09:28:15;22.17;;;2.25;;
32152;SDS011;18656;50.580;11.392;2022-09-16T09:36:34;1.65;;;0.55;;
32152;SDS011;18656;50.580;11.392;2022-09-16T09:39:06;6.32;;;0.57;;
32152;SDS011;18656;50.580;11.392;2022-09-16T09:41:37;5.18;;;0.50;;
32152;SDS011;18656;50.580;11.392;2022-09-16T09:44:25;2.03;;;0.90;;
32152;SDS011;18656;50.580;11.392;2022-09-16T09:46:56;5.07;;;0.65;;
32152;SDS011;18656;50.580;11.392;2022-09-16T09:52:06;0.63;;;0.40;;
32152;SDS011;18656;50.580;11.392;2022-09-16T09:54:38;1.20;;;0.30;;
32152;SDS011;18656;50.580;11.392;2022-09-16T10:00:00;2.65;;;0.47;;
32152;SDS011;18656;50.580;11.392;2022-09-16T10:02:30;0.93;;;0.30;;
32152;SDS011;18656;50.580;11.392;2022-09-16T10:04:58;0.63;;;0.30;;
32152;SDS011;18656;50.580;11.392;2022-09-16T10:07:27;0.60;;;0.38;;
32152;SDS011;18656;50.580;11.392;2022-09-16T10:09:58;3.88;;;0.50;;
32152;SDS011;18656;50.580;11.392;2022-09-16T10:12:28;2.45;;;0.45;;
32152;SDS011;18656;50.580;11.392;2022-09-16T10:14:55;0.85;;;0.35;;
32152;SDS011;18656;50.580;11.392;2022-09-16T10:17:22;0.98;;;0.43;;
32152;SDS011;18656;50.580;11.392;2022-09-16T10:19:52;7.18;;;1.08;;
32152;SDS011;18656;50.580;11.392;2022-09-16T10:22:22;0.60;;;0.40;;
32152;SDS011;18656;50.580;11.392;2022-09-16T10:24:54;2.40;;;0.25;;
32152;SDS011;18656;50.580;11.392;2022-09-16T10:27:28;2.65;;;0.60;;
32152;SDS011;18656;50.580;11.392;2022-09-16T10:30:17;0.85;;;0.80;;
32152;SDS011;18656;50.580;11.392;2022-09-16T10:32:56;8.93;;;0.57;;
32152;SDS011;18656;50.580;11.392;2022-09-16T10:35:28;0.63;;;0.30;;
32152;SDS011;18656;50.580;11.392;2022-09-16T10:38:03;2.08;;;0.30;;
32152;SDS011;18656;50.580;11.392;2022-09-16T10:40:31;0.43;;;0.30;;
32152;SDS011;18656;50.580;11.392;2022-09-16T10:43:05;2.83;;;0.43;;
32152;SDS011;18656;50.580;11.392;2022-09-16T10:45:34;3.40;;;0.28;;
32152;SDS011;18656;50.580;11.392;2022-09-16T10:48:04;3.58;;;0.60;;
32152;SDS011;18656;50.580;11.392;2022-09-16T10:50:33;1.60;;;0.30;;
32152;SDS011;18656;50.580;11.392;2022-09-16T10:53:00;3.25;;;0.35;;
32152;SDS011;18656;50.580;11.392;2022-09-16T10:55:28;1.25;;;0.30;;
32152;SDS011;18656;50.580;11.392;2022-09-16T10:58:10;1.02;;;0.30;;
32152;SDS011;18656;50.580;11.392;2022-09-16T11:00:52;1.17;;;0.40;;
32152;SDS011;18656;50.580;11.392;2022-09-16T11:08:49;1.05;;;0.50;;
32152;SDS011;18656;50.580;11.392;2022-09-16T11:14:08;0.35;;;0.20;;
32152;SDS011;18656;50.580;11.392;2022-09-16T11:19:20;0.28;;;0.28;;
32152;SDS011;18656;50.580;11.392;2022-09-16T11:22:00;1.98;;;0.22;;
32152;SDS011;18656;50.580;11.392;2022-09-16T11:29:51;0.20;;;0.20;;
32152;SDS011;18656;50.580;11.392;2022-09-16T11:32:28;2.67;;;0.40;;
32152;SDS011;18656;50.580;11.392;2022-09-16T11:35:02;0.30;;;0.30;;
32152;SDS011;18656;50.580;11.392;2022-09-16T11:40:24;0.47;;;0.47;;
32152;SDS011;18656;50.580;11.392;2022-09-16T11:43:00;0.82;;;0.47;;
32152;SDS011;18656;50.580;11.392;2022-09-16T11:45:38;1.20;;;0.30;;
32152;SDS011;18656;50.580;11.392;2022-09-16T11:48:18;1.30;;;0.40;;
32152;SDS011;18656;50.580;11.392;2022-09-16T11:50:56;1.60;;;0.43;;
32152;SDS011;18656;50.580;11.392;2022-09-16T11:56:06;1.15;;;0.60;;
32152;SDS011;18656;50.580;11.392;2022-09-16T11:58:53;2.58;;;0.70;;
32152;SDS011;18656;50.580;11.392;2022-09-16T12:03:59;1.15;;;0.70;;
32152;SDS011;18656;50.580;11.392;2022-09-16T12:06:29;0.45;;;0.20;;
32152;SDS011;18656;50.580;11.392;2022-09-16T12:09:04;0.50;;;0.32;;
32152;SDS011;18656;50.580;11.392;2022-09-16T12:11:37;0.40;;;0.40;;
32152;SDS011;18656;50.580;11.392;2022-09-16T12:14:09;0.65;;;0.40;;
32152;SDS011;18656;50.580;11.392;2022-09-16T12:16:45;3.70;;;0.60;;
32152;SDS011;18656;50.580;11.392;2022-09-16T12:19:16;0.75;;;0.30;;
32152;SDS011;18656;50.580;11.392;2022-09-16T12:24:14;0.20;;;0.20;;
32152;SDS011;18656;50.580;11.392;2022-09-16T12:26:45;0.20;;;0.20;;
32152;SDS011;18656;50.580;11.392;2022-09-16T12:29:16;0.93;;;0.30;;
32152;SDS011;18656;50.580;11.392;2022-09-16T12:35:16;1.25;;;0.60;;
32152;SDS011;18656;50.580;11.392;2022-09-16T12:37:23;5.70;;;0.93;;
32152;SDS011;18656;50.580;11.392;2022-09-16T12:39:53;0.38;;;0.38;;
32152;SDS011;18656;50.580;11.392;2022-09-16T12:47:53;1.10;;;0.30;;
32152;SDS011;18656;50.580;11.392;2022-09-16T12:53:13;0.85;;;0.50;;
32152;SDS011;18656;50.580;11.392;2022-09-16T12:58:45;2.97;;;0.90;;
32152;SDS011;18656;50.580;11.392;2022-09-16T13:01:16;3.85;;;0.73;;
32152;SDS011;18656;50.580;11.392;2022-09-16T13:03:46;0.40;;;0.40;;
32152;SDS011;18656;50.580;11.392;2022-09-16T13:06:18;2.10;;;0.82;;
32152;SDS011;18656;50.580;11.392;2022-09-16T13:08:47;1.08;;;0.88;;
32152;SDS011;18656;50.580;11.392;2022-09-16T13:11:17;0.70;;;0.50;;
32152;SDS011;18656;50.580;11.392;2022-09-16T13:14:05;1.60;;;0.55;;
32152;SDS011;18656;50.580;11.392;2022-09-16T13:16:50;2.63;;;0.82;;
32152;SDS011;18656;50.580;11.392;2022-09-16T13:21:46;1.10;;;0.50;;
32152;SDS011;18656;50.580;11.392;2022-09-16T13:24:23;0.55;;;0.40;;
32152;SDS011;18656;50.580;11.392;2022-09-16T13:26:50;0.47;;;0.43;;
32152;SDS011;18656;50.580;11.392;2022-09-16T13:29:37;1.10;;;0.40;;
32152;SDS011;18656;50.580;11.392;2022-09-16T13:32:22;0.40;;;0.40;;
32152;SDS011;18656;50.580;11.392;2022-09-16T13:35:03;1.20;;;0.40;;
32152;SDS011;18656;50.580;11.392;2022-09-16T13:37:31;0.45;;;0.20;;
32152;SDS011;18656;50.580;11.392;2022-09-16T13:40:07;9.82;;;0.85;;
32152;SDS011;18656;50.580;11.392;2022-09-16T13:42:34;2.50;;;0.50;;
32152;SDS011;18656;50.580;11.392;2022-09-16T13:45:02;0.28;;;0.28;;
32152;SDS011;18656;50.580;11.392;2022-09-16T13:47:30;0.40;;;0.40;;
32152;SDS011;18656;50.580;11.392;2022-09-16T13:50:04;0.30;;;0.30;;
32152;SDS011;18656;50.580;11.392;2022-09-16T13:52:34;0.30;;;0.30;;
32152;SDS011;18656;50.580;11.392;2022-09-16T13:55:05;0.63;;;0.50;;
32152;SDS011;18656;50.580;11.392;2022-09-16T14:08:15;1.30;;;0.40;;
32152;SDS011;18656;50.580;11.392;2022-09-16T14:13:18;0.50;;;0.50;;
32152;SDS011;18656;50.580;11.392;2022-09-16T14:15:46;1.23;;;0.57;;
32152;SDS011;18656;50.580;11.392;2022-09-16T14:18:16;0.43;;;0.43;;
32152;SDS011;18656;50.580;11.392;2022-09-16T14:20:51;0.70;;;0.70;;
32152;SDS011;18656;50.580;11.392;2022-09-16T14:23:21;0.65;;;0.40;;
32152;SDS011;18656;50.580;11.392;2022-09-16T14:25:48;0.82;;;0.40;;
32152;SDS011;18656;50.580;11.392;2022-09-16T14:28:21;2.50;;;0.55;;
32152;SDS011;18656;50.580;11.392;2022-09-16T14:30:50;1.65;;;0.63;;
32152;SDS011;18656;50.580;11.392;2022-09-16T14:33:20;2.95;;;0.40;;
32152;SDS011;18656;50.580;11.392;2022-09-16T14:35:48;1.40;;;0.60;;
32152;SDS011;18656;50.580;11.392;2022-09-16T14:38:16;0.57;;;0.57;;
32152;SDS011;18656;50.580;11.392;2022-09-16T14:41:05;0.82;;;0.45;;
32152;SDS011;18656;50.580;11.392;2022-09-16T14:43:33;6.85;;;1.23;;
32152;SDS011;18656;50.580;11.392;2022-09-16T14:46:04;7.43;;;1.38;;
32152;SDS011;18656;50.580;11.392;2022-09-16T14:48:33;7.35;;;0.90;;
32152;SDS011;18656;50.580;11.392;2022-09-16T14:51:01;4.95;;;0.82;;
32152;SDS011;18656;50.580;11.392;2022-09-16T14:53:29;0.90;;;0.60;;
32152;SDS011;18656;50.580;11.392;2022-09-16T14:56:03;0.70;;;0.60;;
32152;SDS011;18656;50.580;11.392;2022-09-16T14:58:31;0.63;;;0.30;;
32152;SDS011;18656;50.580;11.392;2022-09-16T15:01:01;1.65;;;0.43;;
32152;SDS011;18656;50.580;11.392;2022-09-16T15:03:45;2.17;;;0.60;;
32152;SDS011;18656;50.580;11.392;2022-09-16T15:06:15;1.40;;;0.40;;
32152;SDS011;18656;50.580;11.392;2022-09-16T15:08:44;2.25;;;0.30;;
32152;SDS011;18656;50.580;11.392;2022-09-16T15:11:15;0.28;;;0.20;;
32152;SDS011;18656;50.580;11.392;2022-09-16T15:14:04;0.28;;;0.28;;
32152;SDS011;18656;50.580;11.392;2022-09-16T15:16:32;2.95;;;0.52;;
32152;SDS011;18656;50.580;11.392;2022-09-16T15:19:00;0.88;;;0.32;;
32152;SDS011;18656;50.580;11.392;2022-09-16T15:21:29;0.90;;;0.40;;
32152;SDS011;18656;50.580;11.392;2022-09-16T15:23:59;1.40;;;0.35;;
32152;SDS011;18656;50.580;11.392;2022-09-16T15:28:57;1.27;;;0.65;;
32152;SDS011;18656;50.580;11.392;2022-09-16T15:34:01;1.20;;;0.50;;
32152;SDS011;18656;50.580;11.392;2022-09-16T15:38:59;1.67;;;0.52;;
32152;SDS011;18656;50.580;11.392;2022-09-16T15:41:26;0.40;;;0.40;;
32152;SDS011;18656;50.580;11.392;2022-09-16T15:43:53;0.85;;;0.50;;
32152;SDS011;18656;50.580;11.392;2022-09-16T15:46:21;0.30;;;0.30;;
32152;SDS011;18656;50.580;11.392;2022-09-16T15:48:56;1.90;;;0.40;;
32152;SDS011;18656;50.580;11.392;2022-09-16T15:51:31;1.10;;;0.85;;
32152;SDS011;18656;50.580;11.392;2022-09-16T15:54:01;0.68;;;0.57;;
32152;SDS011;18656;50.580;11.392;2022-09-16T15:56:32;1.77;;;1.00;;
32152;SDS011;18656;50.580;11.392;2022-09-16T15:59:18;1.52;;;0.90;;
32152;SDS011;18656;50.580;11.392;2022-09-16T16:01:47;2.70;;;0.73;;
32152;SDS011;18656;50.580;11.392;2022-09-16T16:04:23;1.83;;;0.40;;
32152;SDS011;18656;50.580;11.392;2022-09-16T16:06:53;0.85;;;0.40;;
32152;SDS011;18656;50.580;11.392;2022-09-16T16:09:27;2.53;;;0.38;;
32152;SDS011;18656;50.580;11.392;2022-09-16T16:11:56;2.83;;;0.40;;
32152;SDS011;18656;50.580;11.392;2022-09-16T16:14:24;2.67;;;0.73;;
32152;SDS011;18656;50.580;11.392;2022-09-16T16:16:52;2.25;;;0.40;;
32152;SDS011;18656;50.580;11.392;2022-09-16T16:19:37;1.95;;;0.50;;
32152;SDS011;18656;50.580;11.392;2022-09-16T16:22:06;0.70;;;0.70;;
32152;SDS011;18656;50.580;11.392;2022-09-16T16:24:34;0.63;;;0.43;;
32152;SDS011;18656;50.580;11.392;2022-09-16T16:27:02;2.20;;;0.60;;
32152;SDS011;18656;50.580;11.392;2022-09-16T16:29:29;2.70;;;1.80;;
32152;SDS011;18656;50.580;11.392;2022-09-16T16:32:01;2.35;;;1.17;;
32152;SDS011;18656;50.580;11.392;2022-09-16T16:34:32;1.50;;;1.40;;
32152;SDS011;18656;50.580;11.392;2022-09-16T16:36:59;2.33;;;1.15;;
32152;SDS011;18656;50.580;11.392;2022-09-16T16:39:26;12.27;;;2.03;;
32152;SDS011;18656;50.580;11.392;2022-09-16T16:41:54;12.88;;;2.00;;
32152;SDS011;18656;50.580;11.392;2022-09-16T16:44:21;5.18;;;1.70;;
32152;SDS011;18656;50.580;11.392;2022-09-16T16:46:50;6.07;;;2.45;;
32152;SDS011;18656;50.580;11.392;2022-09-16T16:49:17;4.72;;;2.30;;
32152;SDS011;18656;50.580;11.392;2022-09-16T16:51:46;7.00;;;2.33;;
32152;SDS011;18656;50.580;11.392;2022-09-16T16:54:14;6.30;;;1.55;;
32152;SDS011;18656;50.580;11.392;2022-09-16T16:56:41;3.58;;;2.90;;
32152;SDS011;18656;50.580;11.392;2022-09-16T16:59:09;4.90;;;2.45;;
32152;SDS011;18656;50.580;11.392;2022-09-16T17:01:37;7.07;;;2.65;;
32152;SDS011;18656;50.580;11.392;2022-09-16T17:04:04;8.02;;;2.70;;
32152;SDS011;18656;50.580;11.392;2022-09-16T17:06:31;3.95;;;2.30;;
32152;SDS011;18656;50.580;11.392;2022-09-16T17:09:00;4.45;;;2.75;;
32152;SDS011;18656;50.580;11.392;2022-09-16T17:11:27;6.93;;;3.42;;
32152;SDS011;18656;50.580;11.392;2022-09-16T17:13:59;6.65;;;3.15;;
32152;SDS011;18656;50.580;11.392;2022-09-16T17:16:26;4.88;;;3.60;;
32152;SDS011;18656;50.580;11.392;2022-09-16T17:18:54;5.00;;;3.80;;
32152;SDS011;18656;50.580;11.392;2022-09-16T17:21:23;4.32;;;3.88;;
32152;SDS011;18656;50.580;11.392;2022-09-16T17:23:51;7.88;;;6.68;;
32152;SDS011;18656;50.580;11.392;2022-09-16T17:26:19;9.45;;;6.50;;
32152;SDS011;18656;50.580;11.392;2022-09-16T17:28:46;10.02;;;7.72;;